createdAt,value
2022-10-28T00:00:00.290Z,101186.13
2022-10-28T00:01:32.797Z,101189.50
2022-10-28T00:03:04.909Z,101182.56
2022-10-28T00:04:36.962Z,101191.19
2022-10-28T00:06:14.578Z,101186.81
2022-10-28T00:07:46.704Z,101189.34
2022-10-28T00:09:18.667Z,101191.88
2022-10-28T00:10:50.630Z,101191.00
2022-10-28T00:12:22.587Z,101196.16
2022-10-28T00:14:01.590Z,101191.88
2022-10-28T00:15:35.741Z,101187.63
2022-10-28T00:17:07.665Z,101189.38
2022-10-28T00:18:39.999Z,101186.81
2022-10-28T00:20:12.216Z,101180.78
2022-10-28T00:21:44.827Z,101185.94
2022-10-28T00:23:16.805Z,101186.72
2022-10-28T02:18:01.846Z,101175.03
2022-10-28T02:19:49.474Z,101178.41
2022-10-28T02:21:34.076Z,101178.38
2022-10-28T02:23:15.957Z,101188.59
2022-10-28T02:24:54.024Z,101181.81
2022-10-28T02:26:38.590Z,101176.63
2022-10-28T02:28:14.776Z,101171.44
2022-10-28T02:30:03.108Z,101182.59
2022-10-28T02:31:39.140Z,101178.25
2022-10-28T02:33:13.566Z,101182.59
2022-10-28T02:34:48.012Z,101180.84
2022-10-28T02:36:22.470Z,101185.88
2022-10-28T02:37:55.397Z,101189.25
2022-10-28T02:39:31.832Z,101186.69
2022-10-28T02:41:08.861Z,101186.81
2022-10-28T02:42:46.948Z,101181.66
2022-10-28T02:44:24.546Z,101184.31
2022-10-28T02:45:59.990Z,101188.56
2022-10-28T02:47:34.738Z,101183.25
2022-10-28T02:49:12.437Z,101187.59
2022-10-28T02:50:47.537Z,101189.31
2022-10-28T02:52:21.275Z,101195.41
2022-10-28T02:54:33.465Z,101191.22
2022-10-28T02:56:07.048Z,101185.19
2022-10-28T02:57:42.695Z,101185.16
2022-10-28T02:59:14.682Z,101185.13
2022-10-28T03:00:47.290Z,101182.50
2022-10-28T03:02:19.339Z,101186.72
2022-10-28T03:03:51.453Z,101177.16
2022-10-28T03:05:23.463Z,101183.19
2022-10-28T03:06:55.504Z,101178.84
2022-10-28T03:08:27.502Z,101174.50
2022-10-28T03:09:59.441Z,101183.16
2022-10-28T03:11:31.460Z,101183.09
2022-10-28T03:13:03.488Z,101184.84
2022-10-28T03:14:36.314Z,101187.53
2022-10-28T03:16:08.363Z,101184.13
2022-10-28T03:17:40.968Z,101186.69
2022-10-28T03:19:12.935Z,101182.31
2022-10-28T03:22:16.783Z,101184.06
2022-10-28T03:23:48.820Z,101192.56
2022-10-28T03:25:20.851Z,101186.53
2022-10-28T03:26:52.989Z,101183.94
2022-10-28T03:28:24.992Z,101186.56
2022-10-28T03:29:57.084Z,101185.66
2022-10-28T03:31:29.269Z,101189.00
2022-10-28T03:33:01.316Z,101194.94
2022-10-28T03:34:33.320Z,101190.56
2022-10-28T03:36:05.496Z,101192.28
2022-10-28T03:37:40.218Z,101190.59
2022-10-28T03:39:12.217Z,101188.88
2022-10-28T03:40:44.202Z,101194.88
2022-10-28T03:42:16.187Z,101195.69
2022-10-28T03:43:48.146Z,101195.69
2022-10-28T03:45:20.251Z,101199.22
2022-10-28T03:46:52.337Z,101194.94
2022-10-28T03:48:24.346Z,101188.88
2022-10-28T03:51:28.208Z,101196.56
2022-10-28T03:53:00.472Z,101191.41
2022-10-28T03:54:32.517Z,101195.63
2022-10-28T03:56:05.314Z,101195.56
2022-10-28T03:57:37.455Z,101191.16
2022-10-28T03:59:10.346Z,101195.56
2022-10-28T04:00:42.595Z,101192.94
2022-10-28T04:02:15.992Z,101198.91
2022-10-28T04:03:48.005Z,101193.84
2022-10-28T04:05:20.813Z,101201.44
2022-10-28T04:06:52.793Z,101193.63
2022-10-28T04:08:24.920Z,101193.59
2022-10-28T04:09:56.936Z,101196.22
2022-10-28T04:11:28.984Z,101197.94
2022-10-28T04:13:02.049Z,101194.53
2022-10-28T04:14:34.044Z,101196.38
2022-10-28T04:16:06.744Z,101186.13
2022-10-28T04:17:38.823Z,101192.22
2022-10-28T04:19:10.851Z,101189.66
2022-10-28T04:20:42.943Z,101187.94
2022-10-28T04:22:15.019Z,101185.38
2022-10-28T04:23:47.027Z,101189.75
2022-10-28T04:25:19.024Z,101189.75
2022-10-28T04:26:51.104Z,101194.06
2022-10-28T04:28:26.145Z,101189.75
2022-10-28T04:29:58.583Z,101187.22
2022-10-28T04:31:30.593Z,101184.56
2022-10-28T04:33:02.839Z,101188.84
2022-10-28T04:34:37.392Z,101191.41
2022-10-28T04:36:11.577Z,101193.03
2022-10-28T04:37:43.773Z,101192.94
2022-10-28T04:39:15.843Z,101200.63
2022-10-28T04:40:49.484Z,101186.88
2022-10-28T04:42:21.503Z,101195.41
2022-10-28T04:43:55.151Z,101190.13
2022-10-28T04:45:27.382Z,101195.94
2022-10-28T04:46:59.672Z,101188.19
2022-10-28T04:48:34.464Z,101195.00
2022-10-28T04:50:06.932Z,101188.94
2022-10-28T04:51:39.360Z,101192.28
2022-10-28T04:53:12.593Z,101197.44
2022-10-28T04:54:45.002Z,101198.25
2022-10-28T04:56:16.997Z,101192.19
2022-10-28T04:58:00.027Z,101196.56
2022-10-28T04:59:32.160Z,101189.63
2022-10-28T05:01:08.246Z,101203.47
2022-10-28T05:02:45.167Z,101197.47
2022-10-28T05:04:18.279Z,101196.66
2022-10-28T05:05:50.528Z,101195.91
2022-10-28T05:07:23.693Z,101204.50
2022-10-28T05:08:56.011Z,101202.88
2022-10-28T05:10:28.156Z,101199.56
2022-10-28T05:12:00.219Z,101197.88
2022-10-28T05:13:32.253Z,101196.16
2022-10-28T05:15:04.681Z,101205.59
2022-10-28T05:16:36.789Z,101204.69
2022-10-28T05:18:08.898Z,101208.94
2022-10-28T05:19:40.909Z,101208.13
2022-10-28T05:21:12.970Z,101208.16
2022-10-28T05:22:54.118Z,101209.22
2022-10-28T05:24:26.456Z,101210.84
2022-10-28T05:25:58.620Z,101209.06
2022-10-28T05:27:30.709Z,101209.97
2022-10-28T05:29:02.870Z,101214.34
2022-10-28T05:30:34.979Z,101207.53
2022-10-28T05:32:07.060Z,101206.84
2022-10-28T05:33:39.079Z,101209.56
2022-10-28T05:35:11.555Z,101216.53
2022-10-28T05:36:43.560Z,101215.81
2022-10-28T05:38:16.131Z,101211.69
2022-10-28T05:39:48.211Z,101210.00
2022-10-28T05:41:21.972Z,101207.47
2022-10-28T05:42:55.693Z,101212.75
2022-10-28T05:44:28.050Z,101203.34
2022-10-28T05:46:04.154Z,101214.66
2022-10-28T05:47:39.208Z,101218.16
2022-10-28T05:50:49.119Z,101218.41
2022-10-28T05:52:21.207Z,101219.34
2022-10-28T05:53:53.277Z,101217.78
2022-10-28T05:55:28.669Z,101216.19
2022-10-28T05:57:00.739Z,101222.28
2022-10-28T05:58:33.010Z,101223.28
2022-10-28T06:00:06.026Z,101220.81
2022-10-28T06:01:38.380Z,101218.31
2022-10-28T06:03:12.770Z,101218.44
2022-10-28T06:04:45.044Z,101222.84
2022-10-28T06:06:17.299Z,101227.19
2022-10-28T06:07:49.667Z,101228.19
2022-10-28T06:09:24.528Z,101231.84
2022-10-28T06:10:55.306Z,101233.63
2022-10-28T06:12:27.429Z,101236.34
2022-10-28T06:13:59.628Z,101233.88
2022-10-28T06:15:32.002Z,101234.03
2022-10-28T06:17:04.326Z,101239.41
2022-10-28T06:18:36.538Z,101238.66
2022-10-28T06:20:09.615Z,101236.28
2022-10-28T06:21:41.857Z,101236.38
2022-10-28T06:23:13.997Z,101238.22
2022-10-28T06:24:46.084Z,101239.19
2022-10-28T06:26:18.340Z,101240.19
2022-10-28T06:27:55.439Z,101236.06
2022-10-28T06:29:27.775Z,101241.31
2022-10-28T06:31:10.583Z,101235.41
2022-10-28T06:32:42.869Z,101239.78
2022-10-28T06:34:15.013Z,101239.00
2022-10-28T06:35:50.226Z,101239.94
2022-10-28T06:37:22.468Z,101242.59
2022-10-28T06:38:54.765Z,101235.78
2022-10-28T06:40:28.041Z,101240.16
2022-10-28T06:42:00.382Z,101236.75
2022-10-28T06:43:32.611Z,101236.84
2022-10-28T06:45:05.787Z,101235.16
2022-10-28T06:46:39.596Z,101240.41
2022-10-28T06:48:12.152Z,101247.38
2022-10-28T06:49:44.455Z,101246.53
2022-10-28T06:51:17.652Z,101240.53
2022-10-28T06:52:49.916Z,101234.50
2022-10-28T06:54:24.416Z,101239.75
2022-10-28T06:55:58.025Z,101237.19
2022-10-28T06:57:30.066Z,101239.81
2022-10-28T06:59:02.485Z,101239.00
2022-10-28T07:00:35.175Z,101239.00
2022-10-28T07:02:07.340Z,101242.50
2022-10-28T07:03:39.684Z,101239.06
2022-10-28T07:05:11.843Z,101240.78
2022-10-28T07:06:46.352Z,101234.75
2022-10-28T07:08:20.935Z,101239.94
2022-10-28T07:09:53.193Z,101240.78
2022-10-28T07:11:25.806Z,101237.31
2022-10-28T07:12:58.240Z,101235.56
2022-10-28T07:14:30.784Z,101234.69
2022-10-28T07:16:03.101Z,101232.94
2022-10-28T07:17:35.340Z,101239.81
2022-10-28T07:19:07.473Z,101230.28
2022-10-28T07:20:39.736Z,101237.13
2022-10-28T07:22:12.386Z,101225.03
2022-10-28T07:23:46.714Z,101231.94
2022-10-28T07:25:18.880Z,101231.88
2022-10-28T07:26:53.105Z,101221.44
2022-10-28T07:28:28.327Z,101217.06
2022-10-28T07:30:00.570Z,101223.09
2022-10-28T07:31:32.852Z,101219.56
2022-10-28T07:33:06.469Z,101216.88
2022-10-28T07:34:39.920Z,101222.03
2022-10-28T07:36:12.252Z,101224.56
2022-10-28T07:37:44.561Z,101216.75
2022-10-28T07:39:17.314Z,101221.84
2022-10-28T07:40:49.610Z,101221.81
2022-10-28T07:42:21.941Z,101225.19
2022-10-28T07:43:54.380Z,101220.75
2022-10-28T07:45:26.649Z,101222.41
2022-10-28T07:46:58.742Z,101224.06
2022-10-28T07:48:30.992Z,101215.31
2022-10-28T07:50:03.710Z,101223.03
2022-10-28T07:51:36.049Z,101216.00
2022-10-28T07:53:08.362Z,101217.66
2022-10-28T07:54:40.606Z,101216.72
2022-10-28T07:56:14.221Z,101211.41
2022-10-28T07:57:46.299Z,101212.19
2022-10-28T07:59:26.522Z,101212.06
2022-10-28T08:01:06.315Z,101214.50
2022-10-28T08:02:39.065Z,101202.28
2022-10-28T08:04:11.354Z,101203.00
2022-10-28T08:05:43.488Z,101206.41
2022-10-28T08:07:16.717Z,101203.66
2022-10-28T08:08:50.156Z,101206.16
2022-10-28T08:10:22.152Z,101203.38
2022-10-28T08:11:56.682Z,101212.00
2022-10-28T08:13:29.242Z,101199.78
2022-10-28T08:15:03.269Z,101203.06
2022-10-28T08:16:38.405Z,101208.19
2022-10-28T08:18:10.706Z,101199.41
2022-10-28T08:19:43.108Z,101186.31
2022-10-28T08:21:16.208Z,101195.66
2022-10-28T08:22:48.508Z,101191.19
2022-10-28T08:24:20.869Z,101190.13
2022-10-28T08:25:53.914Z,101190.00
2022-10-28T08:27:26.141Z,101177.69
2022-10-28T08:28:58.659Z,101181.91
2022-10-28T08:30:40.421Z,101182.66
2022-10-28T08:32:23.031Z,101177.31
2022-10-28T08:33:55.258Z,101181.47
2022-10-28T08:35:27.433Z,101175.25
2022-10-28T08:36:59.762Z,101185.53
2022-10-28T08:38:32.056Z,101187.94
2022-10-28T08:40:04.719Z,101173.84
2022-10-28T08:41:48.639Z,101176.94
2022-10-28T08:43:40.043Z,101176.75
2022-10-28T08:45:32.651Z,101179.94
2022-10-28T08:47:31.893Z,101178.84
2022-10-28T08:49:13.725Z,101173.41
2022-10-28T08:50:56.844Z,101180.06
2022-10-28T08:52:35.062Z,101178.00
2022-10-28T08:54:14.050Z,101176.09
2022-10-28T08:55:48.405Z,101183.84
2022-10-28T08:57:43.814Z,101180.16
2022-10-28T08:59:26.017Z,101177.28
2022-10-28T09:01:02.511Z,101175.31
2022-10-28T09:02:57.303Z,101176.75
2022-10-28T09:04:41.942Z,101171.28
2022-10-28T09:06:14.256Z,101175.59
2022-10-28T09:07:46.598Z,101170.09
2022-10-28T09:09:24.982Z,101174.16
2022-10-28T09:11:19.379Z,101168.47
2022-10-28T09:13:07.500Z,101157.75
2022-10-28T09:15:14.450Z,101155.09
2022-10-28T09:17:09.015Z,101154.13
2022-10-28T09:18:58.320Z,101156.56
2022-10-28T09:20:54.712Z,101163.38
2022-10-28T09:22:45.769Z,101157.13
2022-10-28T09:24:24.638Z,101150.00
2022-10-28T09:26:07.790Z,101151.41
2022-10-28T09:28:07.144Z,101143.34
2022-10-28T09:29:44.830Z,101143.09
2022-10-28T09:31:37.166Z,101144.34
2022-10-28T09:33:37.150Z,101140.63
2022-10-28T09:35:14.187Z,101137.88
2022-10-28T09:36:58.531Z,101139.41
2022-10-28T09:38:35.963Z,101140.19
2022-10-28T09:40:26.234Z,101136.47
2022-10-28T09:42:01.314Z,101138.88
2022-10-28T09:43:39.699Z,101131.53
2022-10-28T09:45:23.638Z,101128.47
2022-10-28T09:48:37.516Z,101131.44
2022-10-28T09:50:20.050Z,101127.69
2022-10-28T09:52:05.018Z,101124.78
2022-10-28T09:53:44.354Z,101118.38
2022-10-28T09:55:21.188Z,101116.28
2022-10-28T09:56:53.523Z,101114.28
2022-10-28T09:58:26.081Z,101114.00
2022-10-28T09:59:59.752Z,101108.41
2022-10-28T10:01:34.932Z,101104.72
2022-10-28T10:03:07.307Z,101108.25
2022-10-28T10:04:39.600Z,101108.09
2022-10-28T10:06:20.108Z,101106.69
2022-10-28T10:07:59.428Z,101102.16
2022-10-28T10:09:34.076Z,101106.34
2022-10-28T10:11:12.493Z,101098.44
2022-10-28T10:12:46.416Z,101106.44
2022-10-28T10:14:35.161Z,101097.31
2022-10-28T10:16:27.697Z,101094.69
2022-10-28T10:18:01.500Z,101093.69
2022-10-28T10:19:59.297Z,101088.94
2022-10-28T10:21:50.511Z,101096.63
2022-10-28T10:23:31.704Z,101089.41
2022-10-28T10:25:19.152Z,101089.28
2022-10-28T10:26:55.396Z,101079.19
2022-10-28T10:28:28.192Z,101080.72
2022-10-28T10:30:00.796Z,101086.72
2022-10-28T10:31:33.004Z,101081.31
2022-10-28T10:33:06.686Z,101083.63
2022-10-28T10:34:39.409Z,101085.22
2022-10-28T10:36:11.793Z,101081.44
2022-10-28T10:37:46.892Z,101075.91
2022-10-28T10:39:26.677Z,101073.22
2022-10-28T10:40:59.013Z,101071.34
2022-10-28T10:42:31.153Z,101073.22
2022-10-28T10:44:23.615Z,101077.28
2022-10-28T10:46:16.867Z,101067.19
2022-10-28T10:47:49.315Z,101075.16
2022-10-28T10:49:21.583Z,101074.44
2022-10-28T10:50:55.341Z,101067.19
2022-10-28T10:52:28.870Z,101067.13
2022-10-28T10:54:01.390Z,101063.44
2022-10-28T10:55:39.386Z,101061.44
2022-10-28T10:57:17.438Z,101057.13
2022-10-28T10:58:52.119Z,101066.13
2022-10-28T11:00:26.018Z,101058.03
2022-10-28T11:01:59.233Z,101057.91
2022-10-28T11:03:33.504Z,101050.50
2022-10-28T11:05:10.673Z,101053.16
2022-10-28T11:06:44.807Z,101059.22
2022-10-28T11:08:38.817Z,101053.63
2022-10-28T11:10:23.095Z,101049.22
2022-10-28T11:11:58.469Z,101043.25
2022-10-28T11:13:31.607Z,101046.50
2022-10-28T11:15:28.676Z,101041.75
2022-10-28T11:17:02.861Z,101041.63
2022-10-28T11:18:42.097Z,101047.34
2022-10-28T11:20:47.463Z,101042.75
2022-10-28T11:22:25.566Z,101045.31
2022-10-28T11:24:16.412Z,101048.97
2022-10-28T11:25:51.776Z,101042.75
2022-10-28T11:27:41.733Z,101043.47
2022-10-28T11:29:15.666Z,101045.53
2022-10-28T11:30:47.739Z,101054.06
2022-10-28T11:32:50.128Z,101042.34
2022-10-28T11:35:01.371Z,101043.94
2022-10-28T11:36:53.800Z,101036.81
2022-10-28T11:38:26.046Z,101029.22
2022-10-28T11:40:14.523Z,101042.16
2022-10-28T11:41:49.936Z,101034.00
2022-10-28T11:43:37.210Z,101030.94
2022-10-28T11:45:14.969Z,101030.00
2022-10-28T11:47:17.216Z,101026.28
2022-10-28T11:49:09.780Z,101025.16
2022-10-28T11:50:44.677Z,101027.63
2022-10-28T11:52:31.786Z,101020.34
2022-10-28T11:54:26.297Z,101026.91
2022-10-28T11:56:13.341Z,101026.72
2022-10-28T11:57:52.580Z,101026.31
2022-10-28T11:59:56.439Z,101017.47
2022-10-28T12:01:42.283Z,101025.41
2022-10-28T12:03:14.814Z,101020.72
2022-10-28T12:05:33.873Z,101012.97
2022-10-28T12:07:28.786Z,101007.41
2022-10-28T12:09:25.764Z,101009.97
2022-10-28T12:12:51.413Z,101012.84
2022-10-28T12:14:35.115Z,101003.19
2022-10-28T12:16:13.074Z,101010.41
2022-10-28T12:18:12.280Z,101004.47
2022-10-28T12:20:12.357Z,101007.56
2022-10-28T12:21:51.110Z,101004.94
2022-10-28T12:23:24.357Z,101003.44
2022-10-28T12:24:56.407Z,101010.28
2022-10-28T12:26:38.778Z,101005.00
2022-10-28T12:28:27.059Z,101003.06
2022-10-28T12:30:16.785Z,101003.38
2022-10-28T12:31:56.629Z,101001.75
2022-10-28T12:33:38.808Z,100996.47
2022-10-28T12:35:15.386Z,100998.06
2022-10-28T12:36:51.298Z,101004.81
2022-10-28T12:38:39.453Z,100996.53
2022-10-28T12:42:19.459Z,100999.41
2022-10-28T12:43:59.176Z,100997.31
2022-10-28T12:45:33.053Z,101001.34
2022-10-28T12:47:28.408Z,100999.78
2022-10-28T12:49:25.343Z,100999.56
2022-10-28T12:51:07.787Z,100998.53
2022-10-28T12:53:02.358Z,100990.53
2022-10-28T12:54:53.766Z,100999.47
2022-10-28T12:56:41.429Z,100991.31
2022-10-28T12:58:32.218Z,100998.88
2022-10-28T13:00:16.386Z,100990.84
2022-10-28T13:01:50.193Z,100991.94
2022-10-28T13:03:22.639Z,100995.59
2022-10-28T13:04:55.106Z,100988.44
2022-10-28T13:06:41.999Z,100986.91
2022-10-28T13:08:27.240Z,100985.19
2022-10-28T13:10:46.937Z,100986.75
2022-10-28T13:12:53.582Z,100976.66
2022-10-28T13:14:34.842Z,100984.28
2022-10-28T13:16:10.076Z,100978.28
2022-10-28T13:18:24.400Z,100978.91
2022-10-28T13:20:21.684Z,100977.50
2022-10-28T13:22:22.885Z,100972.78
2022-10-28T13:24:19.253Z,100974.47
2022-10-28T13:25:51.565Z,100971.00
2022-10-28T13:27:24.272Z,100956.41
2022-10-28T13:28:58.815Z,100968.41
2022-10-28T13:30:35.754Z,100966.72
2022-10-28T13:32:30.621Z,100972.06
2022-10-28T13:34:05.207Z,100972.06
2022-10-28T13:35:37.914Z,100962.47
2022-10-28T13:37:19.870Z,100971.38
2022-10-28T13:38:58.773Z,100965.47
2022-10-28T13:40:31.095Z,100970.13
2022-10-28T13:42:16.437Z,100959.56
2022-10-28T13:43:51.708Z,100962.00
2022-10-28T13:45:46.528Z,100958.28
2022-10-28T13:47:31.759Z,100957.50
2022-10-28T13:49:25.662Z,100960.03
2022-10-28T13:51:09.935Z,100961.28
2022-10-28T13:52:44.279Z,100963.16
2022-10-28T13:54:51.689Z,100959.97
2022-10-28T13:56:46.244Z,100956.63
2022-10-28T13:58:23.446Z,100958.06
2022-10-28T14:00:04.142Z,100960.00
2022-10-28T14:01:36.469Z,100959.53
2022-10-28T14:03:20.756Z,100956.72
2022-10-28T14:04:58.675Z,100962.28
2022-10-28T14:06:32.311Z,100957.06
2022-10-28T14:08:18.203Z,100956.28
2022-10-28T14:09:52.961Z,100960.00
2022-10-28T14:11:28.104Z,100949.69
2022-10-28T14:13:19.285Z,100953.19
2022-10-28T14:15:00.732Z,100960.44
2022-10-28T14:16:39.824Z,100958.88
2022-10-28T14:18:41.664Z,100956.41
2022-10-28T14:20:29.927Z,100961.09
2022-10-28T14:22:11.233Z,100957.84
2022-10-28T14:23:43.703Z,100961.09
2022-10-28T14:25:40.787Z,100956.91
2022-10-28T14:27:16.260Z,100957.19
2022-10-28T14:28:52.600Z,100965.16
2022-10-28T14:30:25.075Z,100955.75
2022-10-28T14:31:57.402Z,100966.41
2022-10-28T14:33:29.804Z,100959.66
2022-10-28T14:35:13.745Z,100960.72
2022-10-28T14:37:17.183Z,100960.03
2022-10-28T14:40:53.006Z,100964.09
2022-10-28T14:44:51.573Z,100964.63
2022-10-28T14:46:32.928Z,100968.56
2022-10-28T14:48:10.943Z,100970.47
2022-10-28T14:49:49.883Z,100971.53
2022-10-28T14:51:46.930Z,100972.72
2022-10-28T14:53:31.593Z,100966.78
2022-10-28T14:55:06.564Z,100970.56
2022-10-28T14:56:40.037Z,100962.81
2022-10-28T14:58:15.175Z,100972.56
2022-10-28T14:59:48.414Z,100970.19
2022-10-28T15:01:21.858Z,100968.50
2022-10-28T15:02:54.843Z,100972.28
2022-10-28T15:04:27.293Z,100962.09
2022-10-28T15:06:03.680Z,100974.47
2022-10-28T15:07:38.293Z,100972.28
2022-10-28T15:09:25.725Z,100972.31
2022-10-28T15:10:58.027Z,100975.34
2022-10-28T15:12:30.256Z,100968.59
2022-10-28T15:14:23.571Z,100963.47
2022-10-28T15:15:59.361Z,100969.16
2022-10-28T15:17:43.294Z,100967.63
2022-10-28T15:19:22.532Z,100971.38
2022-10-28T15:21:11.757Z,100972.59
2022-10-28T15:22:45.174Z,100972.09
2022-10-28T15:24:17.492Z,100970.75
2022-10-28T15:26:12.408Z,100975.41
2022-10-28T15:27:46.636Z,100980.22
2022-10-28T15:29:19.206Z,100977.16
2022-10-28T15:30:51.766Z,100981.97
2022-10-28T15:32:23.973Z,100984.00
2022-10-28T15:33:58.961Z,100987.94
2022-10-28T15:35:31.351Z,100980.53
2022-10-28T15:37:03.535Z,100987.91
2022-10-28T15:38:38.696Z,100986.44
2022-10-28T15:40:17.397Z,100984.25
2022-10-28T15:41:52.778Z,100975.94
2022-10-28T15:43:27.914Z,100989.38
2022-10-28T15:45:00.543Z,100987.13
2022-10-28T15:46:34.522Z,100986.50
2022-10-28T15:48:14.881Z,100993.75
2022-10-28T15:49:58.757Z,100998.44
2022-10-28T15:51:31.104Z,100993.50
2022-10-28T15:53:12.356Z,100996.25
2022-10-28T15:54:58.182Z,101000.81
2022-10-28T15:56:30.729Z,100998.63
2022-10-28T15:58:23.324Z,101001.41
2022-10-28T16:00:21.444Z,101013.91
2022-10-28T16:01:59.068Z,101011.72
2022-10-28T16:03:40.735Z,101012.84
2022-10-28T16:05:40.400Z,101014.88
2022-10-28T16:07:12.802Z,101004.78
2022-10-28T16:08:45.159Z,101017.25
2022-10-28T16:10:17.563Z,101023.56
2022-10-28T16:11:57.203Z,101021.94
2022-10-28T16:15:14.457Z,101007.00
2022-10-28T16:16:46.889Z,101019.25
2022-10-28T16:18:19.304Z,101020.34
2022-10-28T16:19:52.705Z,101018.81
2022-10-28T16:21:25.297Z,101021.44
2022-10-28T16:22:58.432Z,101029.47
2022-10-28T16:24:30.687Z,101024.41
2022-10-28T16:26:03.198Z,101028.88
2022-10-28T16:27:35.491Z,101034.25
2022-10-28T16:29:07.891Z,101033.59
2022-10-28T16:30:40.325Z,101036.38
2022-10-28T16:32:13.524Z,101041.66
2022-10-28T16:33:46.482Z,101040.13
2022-10-28T16:35:23.285Z,101036.81
2022-10-28T16:36:55.521Z,101043.06
2022-10-28T16:38:27.904Z,101043.25
2022-10-28T16:40:00.350Z,101043.38
2022-10-28T16:41:32.724Z,101040.94
2022-10-28T16:43:04.881Z,101050.63
2022-10-28T16:44:37.225Z,101043.00
2022-10-28T16:46:10.269Z,101043.06
2022-10-28T16:49:14.531Z,101039.75
2022-10-28T16:51:01.775Z,101044.06
2022-10-28T16:52:34.908Z,101040.63
2022-10-28T16:54:08.001Z,101041.53
2022-10-28T16:55:41.162Z,101046.75
2022-10-28T16:57:14.052Z,101038.09
2022-10-28T16:58:48.699Z,101040.78
2022-10-28T17:00:21.304Z,101044.38
2022-10-28T17:01:53.527Z,101047.00
2022-10-28T17:03:25.898Z,101055.75
2022-10-28T17:04:59.537Z,101049.72
2022-10-28T17:06:31.930Z,101048.94
2022-10-28T17:08:08.827Z,101050.69
2022-10-28T17:09:42.544Z,101046.47
2022-10-28T17:11:15.952Z,101045.63
2022-10-28T17:12:47.989Z,101048.28
2022-10-28T17:14:20.384Z,101045.78
2022-10-28T17:15:56.291Z,101050.19
2022-10-28T17:17:28.513Z,101054.59
2022-10-28T17:19:00.958Z,101058.19
2022-10-28T17:20:34.211Z,101053.09
2022-10-28T17:23:41.093Z,101054.09
2022-10-28T17:25:13.384Z,101042.06
2022-10-28T17:26:47.718Z,101053.34
2022-10-28T17:28:19.985Z,101052.53
2022-10-28T17:29:52.347Z,101050.00
2022-10-28T17:31:25.845Z,101055.25
2022-10-28T17:32:58.029Z,101051.81
2022-10-28T17:34:30.364Z,101057.03
2022-10-28T17:36:06.705Z,101056.16
2022-10-28T17:37:39.066Z,101051.91
2022-10-28T17:39:17.010Z,101051.91
2022-10-28T17:40:55.572Z,101054.50
2022-10-28T17:42:28.110Z,101054.53
2022-10-28T17:44:02.605Z,101051.97
2022-10-28T17:45:34.979Z,101056.31
2022-10-28T17:47:07.366Z,101055.47
2022-10-28T17:48:40.670Z,101054.59
2022-10-28T17:50:13.124Z,101060.66
2022-10-28T17:51:48.281Z,101058.09
2022-10-28T17:53:20.801Z,101058.13
2022-10-28T17:54:53.433Z,101054.66
2022-10-28T17:56:25.727Z,101058.16
2022-10-28T17:57:58.371Z,101058.16
2022-10-28T17:59:30.801Z,101053.84
2022-10-28T18:01:06.611Z,101055.59
2022-10-28T18:02:40.693Z,101054.75
2022-10-28T18:04:13.352Z,101048.69
2022-10-28T18:05:45.525Z,101054.78
2022-10-28T18:07:17.923Z,101046.19
2022-10-28T18:10:22.825Z,101060.91
2022-10-28T18:11:55.183Z,101059.19
2022-10-28T18:13:28.969Z,101056.63
2022-10-28T18:15:01.360Z,101056.63
2022-10-28T18:16:34.709Z,101052.31
2022-10-28T18:18:07.083Z,101063.56
2022-10-28T18:19:39.413Z,101056.66
2022-10-28T18:21:12.887Z,101058.38
2022-10-28T18:22:45.043Z,101050.59
2022-10-28T18:24:19.521Z,101051.50
2022-10-28T18:26:00.758Z,101056.69
2022-10-28T18:29:10.902Z,101052.38
2022-10-28T18:30:43.305Z,101055.84
2022-10-28T18:32:16.777Z,101058.44
2022-10-28T18:33:49.707Z,101058.44
2022-10-28T18:35:22.058Z,101061.91
2022-10-28T18:36:57.309Z,101054.94
2022-10-28T18:38:29.607Z,101059.28
2022-10-28T18:40:01.841Z,101051.50
2022-10-28T18:41:38.527Z,101051.50
2022-10-28T18:43:11.109Z,101053.22
2022-10-28T18:44:43.589Z,101052.38
2022-10-28T18:46:15.815Z,101057.53
2022-10-28T18:47:48.040Z,101052.34
2022-10-28T18:49:20.390Z,101054.09
2022-10-28T18:51:00.533Z,101059.25
2022-10-28T18:52:33.014Z,101058.34
2022-10-28T18:54:05.679Z,101061.81
2022-10-28T18:55:37.949Z,101066.13
2022-10-28T18:57:10.266Z,101062.69
2022-10-28T18:58:43.112Z,101057.50
2022-10-28T19:00:18.313Z,101056.63
2022-10-28T19:01:51.064Z,101061.81
2022-10-28T19:03:24.007Z,101062.69
2022-10-28T19:04:56.475Z,101062.69
2022-10-28T19:06:32.976Z,101059.19
2022-10-28T19:08:05.561Z,101065.22
2022-10-28T19:09:37.815Z,101063.50
2022-10-28T19:11:14.000Z,101067.78
2022-10-28T19:12:52.005Z,101066.91
2022-10-28T19:14:25.413Z,101067.75
2022-10-28T19:15:57.960Z,101065.16
2022-10-28T19:17:30.352Z,101066.91
2022-10-28T19:19:05.014Z,101066.06
2022-10-28T19:20:37.493Z,101062.59
2022-10-28T19:22:09.792Z,101066.88
2022-10-28T19:23:43.379Z,101066.00
2022-10-28T19:25:16.136Z,101072.06
2022-10-28T19:26:48.351Z,101072.91
2022-10-28T19:28:20.707Z,101080.66
2022-10-28T19:29:53.067Z,101066.00
2022-10-28T19:31:26.672Z,101071.19
2022-10-28T19:32:59.088Z,101066.88
2022-10-28T19:34:33.367Z,101077.19
2022-10-28T19:36:14.733Z,101078.03
2022-10-28T19:37:47.035Z,101078.03
2022-10-28T19:39:19.468Z,101077.16
2022-10-28T19:42:31.994Z,101067.59
2022-10-28T19:44:04.960Z,101080.56
2022-10-28T19:45:37.415Z,101082.22
2022-10-28T19:47:09.743Z,101086.50
2022-10-28T19:48:44.275Z,101080.44
2022-10-28T19:50:16.953Z,101086.47
2022-10-28T19:51:49.260Z,101079.56
2022-10-28T19:53:21.655Z,101079.56
2022-10-28T19:54:57.029Z,101086.50
2022-10-28T19:56:30.787Z,101079.59
2022-10-28T19:58:03.188Z,101090.78
2022-10-28T19:59:35.612Z,101093.34
2022-10-28T20:01:09.789Z,101085.59
2022-10-28T20:02:42.402Z,101087.31
2022-10-28T20:04:14.755Z,101087.31
2022-10-28T20:05:46.982Z,101089.91
2022-10-28T20:07:20.475Z,101090.72
2022-10-28T20:08:52.697Z,101094.22
2022-10-28T20:12:04.176Z,101097.63
2022-10-28T20:13:36.849Z,101097.63
2022-10-28T20:15:09.459Z,101089.88
2022-10-28T20:16:44.082Z,101092.47
2022-10-28T20:18:16.436Z,101088.97
2022-10-28T20:19:48.896Z,101095.00
2022-10-28T20:21:22.239Z,101086.41
2022-10-28T20:22:54.613Z,101091.53
2022-10-28T20:24:27.306Z,101091.53
2022-10-28T20:26:00.298Z,101097.59
2022-10-28T20:27:32.589Z,101094.13
2022-10-28T20:29:07.077Z,101096.69
2022-10-28T20:30:39.147Z,101095.78
2022-10-28T20:32:11.434Z,101094.00
2022-10-28T20:33:45.057Z,101089.72
2022-10-28T20:35:17.134Z,101092.25
2022-10-28T20:36:49.638Z,101090.56
2022-10-28T20:38:22.709Z,101088.88
2022-10-28T20:39:58.350Z,101088.03
2022-10-28T20:41:33.987Z,101087.13
2022-10-28T20:43:06.225Z,101085.38